Time;durP1;ratioP1;P1;durP2;ratioP2;P2;SDS_P1;SDS_P2;PMS_P1;PMS_P2;Temp;Humidity;BMP_temperature;BMP_pressure;BME280_temperature;BME280_humidity;BME280_pressure;Samples;Min_cycle;Max_cycle;Signal;HPM_P1;HPM_P2
2022/06/17 00:00:22;;;;;;;5.47;2.73;;;16.90;99.90;;;;;;5055879;28;20852;-70
2022/06/17 00:02:49;;;;;;;3.10;2.83;;;16.80;99.90;;;;;;5049511;28;21037;-70
2022/06/17 00:05:16;;;;;;;3.70;3.07;;;16.70;99.90;;;;;;5061626;28;20467;-70
2022/06/17 00:07:44;;;;;;;3.50;3.17;;;16.60;99.90;;;;;;5056963;28;20474;-70
2022/06/17 00:10:18;;;;;;;5.30;3.40;;;16.60;99.90;;;;;;5056852;28;20470;-70
2022/06/17 00:12:45;;;;;;;5.10;3.27;;;16.60;99.90;;;;;;5054390;28;20764;-69
2022/06/17 00:15:13;;;;;;;8.80;3.90;;;16.60;99.90;;;;;;5059157;28;21997;-69
2022/06/17 00:17:41;;;;;;;8.40;3.60;;;16.60;99.90;;;;;;5054828;28;20459;-69
2022/06/17 00:20:12;;;;;;;8.50;4.70;;;16.60;99.90;;;;;;5057822;28;20475;-70
2022/06/17 00:22:42;;;;;;;5.87;3.30;;;16.30;99.90;;;;;;5061267;28;20489;-69
2022/06/17 00:25:16;;;;;;;8.33;3.47;;;15.90;99.90;;;;;;5060209;28;20928;-70
2022/06/17 00:27:43;;;;;;;3.70;3.40;;;16.00;99.90;;;;;;5048533;28;20570;-68
2022/06/17 00:30:16;;;;;;;4.30;3.40;;;16.10;99.90;;;;;;5050249;28;20482;-69
2022/06/17 00:32:43;;;;;;;4.07;3.57;;;16.20;99.90;;;;;;5055211;28;20460;-68
2022/06/17 00:35:11;;;;;;;4.63;3.73;;;16.20;99.90;;;;;;5054205;28;20543;-68
2022/06/17 00:37:38;;;;;;;3.97;3.10;;;16.20;99.90;;;;;;5050333;28;20499;-69
2022/06/17 00:40:12;;;;;;;3.80;3.23;;;16.10;99.90;;;;;;5051158;28;20479;-69
2022/06/17 00:42:39;;;;;;;4.33;3.60;;;15.90;99.90;;;;;;5055280;28;20555;-68
2022/06/17 00:45:16;;;;;;;4.87;4.23;;;15.80;99.90;;;;;;5058284;28;20462;-69
2022/06/17 00:47:49;;;;;;;3.93;3.50;;;15.90;99.90;;;;;;5056629;28;20983;-69
2022/06/17 00:50:21;;;;;;;4.90;3.67;;;16.00;99.90;;;;;;5052251;28;20999;-69
2022/06/17 00:52:54;;;;;;;3.67;2.90;;;16.00;99.90;;;;;;5059721;28;20539;-69
2022/06/17 00:55:27;;;;;;;3.83;3.00;;;16.10;99.90;;;;;;5052616;28;20545;-68
2022/06/17 00:57:54;;;;;;;10.87;3.80;;;16.10;99.90;;;;;;5060585;28;20430;-69
2022/06/17 01:00:25;;;;;;;4.60;4.17;;;16.00;99.90;;;;;;5049367;28;20452;-69
2022/06/17 01:02:55;;;;;;;4.60;3.67;;;16.00;99.90;;;;;;5050296;28;20477;-69
2022/06/17 01:05:25;;;;;;;4.03;3.60;;;16.00;99.90;;;;;;5053043;28;20455;-68
2022/06/17 01:08:02;;;;;;;6.07;4.27;;;15.70;99.90;;;;;;5046815;28;20807;-70
2022/06/17 01:10:28;;;;;;;6.27;4.23;;;15.40;99.90;;;;;;5037550;28;20578;-68
2022/06/17 01:12:59;;;;;;;3.83;3.17;;;15.30;99.90;;;;;;5042701;28;20418;-69
2022/06/17 01:15:30;;;;;;;5.20;3.40;;;15.40;99.90;;;;;;5056756;28;20555;-70
2022/06/17 01:17:57;;;;;;;6.23;3.30;;;15.60;99.90;;;;;;5053630;28;20905;-70
2022/06/17 01:20:26;;;;;;;3.10;2.90;;;15.70;99.90;;;;;;5049118;28;20866;-70
2022/06/17 01:22:57;;;;;;;3.27;3.00;;;15.70;99.90;;;;;;5057394;28;20950;-70
2022/06/17 01:25:26;;;;;;;3.47;2.90;;;15.70;99.90;;;;;;5055967;28;20548;-70
2022/06/17 01:27:54;;;;;;;6.63;4.00;;;15.80;99.90;;;;;;5053497;28;20952;-71
2022/06/17 01:30:23;;;;;;;4.40;3.80;;;15.90;99.90;;;;;;5053365;28;20479;-70
2022/06/17 01:32:55;;;;;;;5.87;4.53;;;15.80;99.90;;;;;;5058194;28;20463;-70
2022/06/17 01:35:24;;;;;;;4.57;4.07;;;15.70;99.90;;;;;;5057606;28;20459;-69
2022/06/17 01:37:51;;;;;;;4.10;3.67;;;15.70;99.90;;;;;;5055113;28;20453;-69
2022/06/17 01:40:21;;;;;;;4.87;3.63;;;15.70;99.90;;;;;;5054562;28;20857;-69
2022/06/17 01:42:49;;;;;;;6.03;3.40;;;15.60;99.90;;;;;;5049938;28;20550;-69
2022/06/17 01:45:16;;;;;;;4.53;3.90;;;15.60;99.90;;;;;;5057333;28;20448;-69
2022/06/17 01:47:46;;;;;;;8.10;4.30;;;15.60;99.90;;;;;;5051337;28;20601;-70
2022/06/17 01:50:16;;;;;;;4.20;3.40;;;15.60;99.90;;;;;;5049202;28;20934;-69
2022/06/17 01:52:48;;;;;;;5.57;3.60;;;15.60;99.90;;;;;;5055198;28;20549;-70
2022/06/17 01:55:18;;;;;;;4.13;3.77;;;15.60;99.90;;;;;;5052059;28;20958;-70
2022/06/17 01:57:56;;;;;;;3.93;3.43;;;15.60;99.90;;;;;;5052555;28;20473;-70
2022/06/17 02:00:26;;;;;;;5.10;3.87;;;15.60;99.90;;;;;;5049920;28;20479;-69
2022/06/17 02:02:57;;;;;;;4.33;3.80;;;15.70;99.90;;;;;;5051547;28;20801;-68
2022/06/17 02:05:26;;;;;;;5.23;4.43;;;15.70;99.90;;;;;;5057247;28;20491;-70
2022/06/17 02:07:57;;;;;;;4.63;3.57;;;15.70;99.90;;;;;;5054931;28;20470;-70
2022/06/17 02:10:27;;;;;;;8.53;5.03;;;15.70;99.90;;;;;;5048761;28;21017;-70
2022/06/17 02:12:56;;;;;;;5.73;4.30;;;15.70;99.90;;;;;;5057651;28;20530;-70
2022/06/17 02:15:24;;;;;;;5.03;3.67;;;15.70;99.90;;;;;;5059381;28;20455;-70
2022/06/17 02:17:53;;;;;;;3.70;3.40;;;15.70;99.90;;;;;;5055543;28;20462;-70
2022/06/17 02:20:21;;;;;;;4.77;4.20;;;15.80;99.90;;;;;;5057145;28;20501;-69
2022/06/17 02:22:48;;;;;;;9.53;4.50;;;15.70;99.90;;;;;;5058461;28;20460;-70
2022/06/17 02:25:18;;;;;;;8.80;3.80;;;15.70;99.90;;;;;;5059637;28;20574;-70
2022/06/17 02:27:48;;;;;;;7.23;3.60;;;15.40;99.90;;;;;;5058078;28;20478;-70
2022/06/17 02:30:16;;;;;;;9.20;3.80;;;15.50;99.90;;;;;;5054598;28;20474;-70
2022/06/17 02:32:44;;;;;;;3.70;3.40;;;15.50;99.90;;;;;;5054483;28;20470;-70
2022/06/17 02:35:22;;;;;;;5.50;3.20;;;15.50;99.90;;;;;;5053750;28;20771;-70
2022/06/17 02:37:49;;;;;;;6.40;4.17;;;15.50;99.90;;;;;;5053663;28;20539;-70
2022/06/17 02:40:25;;;;;;;4.20;3.80;;;15.50;99.90;;;;;;5057924;28;20449;-70
2022/06/17 02:42:52;;;;;;;5.57;4.60;;;15.40;99.90;;;;;;5046338;28;20823;-69
2022/06/17 02:45:25;;;;;;;4.90;4.17;;;15.20;99.90;;;;;;5052246;28;20583;-68
2022/06/17 02:47:53;;;;;;;3.47;3.17;;;15.10;99.90;;;;;;5055582;28;20430;-69
2022/06/17 02:50:23;;;;;;;4.87;4.37;;;15.10;99.90;;;;;;5075990;22;20488;-70
2022/06/17 02:52:52;;;;;;;4.90;4.37;;;15.20;99.90;;;;;;5073246;28;20557;-70
2022/06/17 02:55:25;;;;;;;5.20;4.80;;;15.20;99.90;;;;;;5073627;28;20436;-70
2022/06/17 02:57:56;;;;;;;4.57;4.00;;;15.20;99.90;;;;;;5078122;28;20481;-69
2022/06/17 03:00:25;;;;;;;10.47;4.93;;;15.30;99.90;;;;;;5082240;28;20469;-72
2022/06/17 03:02:56;;;;;;;5.93;3.80;;;15.20;99.90;;;;;;5071467;28;20509;-71
2022/06/17 03:05:26;;;;;;;5.93;3.67;;;15.20;99.90;;;;;;5077113;28;20452;-71
2022/06/17 03:07:55;;;;;;;3.87;3.47;;;15.10;99.90;;;;;;5073922;28;20459;-72
2022/06/17 03:10:28;;;;;;;4.37;3.60;;;15.10;99.90;;;;;;5081086;28;20481;-70
2022/06/17 03:12:59;;;;;;;5.23;4.13;;;15.10;99.90;;;;;;5079337;28;20450;-70
2022/06/17 03:15:27;;;;;;;5.60;3.87;;;15.10;99.90;;;;;;5078166;28;20453;-71
2022/06/17 03:17:54;;;;;;;4.80;4.30;;;15.00;99.90;;;;;;5080377;28;20465;-71
2022/06/17 03:20:25;;;;;;;3.97;3.53;;;15.00;99.90;;;;;;5082960;28;20984;-70
2022/06/17 03:22:58;;;;;;;5.10;4.20;;;14.90;99.90;;;;;;5074810;28;20523;-71
2022/06/17 03:25:29;;;;;;;7.50;4.30;;;15.00;99.90;;;;;;5069459;28;20553;-71
2022/06/17 03:28:01;;;;;;;7.00;4.70;;;15.00;99.90;;;;;;5080371;28;20627;-72
2022/06/17 03:30:34;;;;;;;15.10;4.87;;;14.90;99.90;;;;;;5077593;28;20882;-72
2022/06/17 03:33:20;;;;;;;7.70;4.03;;;14.90;99.90;;;;;;5084500;28;20742;-71
2022/06/17 03:35:50;;;;;;;4.07;3.20;;;15.00;99.90;;;;;;5074673;28;20437;-71
2022/06/17 03:38:32;;;;;;;7.13;4.43;;;15.10;99.90;;;;;;5081357;28;20837;-70
2022/06/17 03:41:04;;;;;;;12.03;3.53;;;15.10;99.90;;;;;;5077210;28;20596;-72
2022/06/17 03:43:34;;;;;;;5.00;4.13;;;15.10;99.90;;;;;;5079253;28;20520;-71
2022/06/17 03:46:05;;;;;;;7.30;5.13;;;15.00;99.90;;;;;;5078714;28;20432;-71
2022/06/17 03:48:37;;;;;;;5.83;4.37;;;15.20;99.90;;;;;;5074394;28;20453;-71
2022/06/17 03:51:04;;;;;;;5.10;4.07;;;15.30;99.90;;;;;;5082391;28;20550;-72
2022/06/17 03:53:33;;;;;;;4.50;4.10;;;15.40;99.90;;;;;;5073104;28;20464;-71
2022/06/17 03:56:05;;;;;;;5.47;4.40;;;15.50;99.90;;;;;;5064331;28;20464;-71
2022/06/17 03:58:33;;;;;;;4.23;3.83;;;15.60;99.90;;;;;;5080043;28;20544;-71
2022/06/17 04:01:05;;;;;;;4.50;3.70;;;15.50;99.90;;;;;;5072528;28;20911;-71
2022/06/17 04:03:35;;;;;;;4.20;3.57;;;15.50;99.90;;;;;;5080237;28;20436;-71
2022/06/17 04:06:08;;;;;;;6.40;3.83;;;15.60;99.90;;;;;;5074449;28;20433;-71
2022/06/17 04:08:49;;;;;;;6.93;3.83;;;15.70;99.90;;;;;;5077098;28;20448;-71
2022/06/17 04:11:17;;;;;;;10.40;4.80;;;15.80;99.90;;;;;;5074432;28;20863;-72
2022/06/17 04:13:44;;;;;;;6.03;4.63;;;16.10;99.90;;;;;;5077230;28;20913;-71
2022/06/17 04:16:19;;;;;;;9.77;5.47;;;16.00;99.90;;;;;;5069567;28;20557;-71
2022/06/17 04:18:46;;;;;;;5.63;3.87;;;15.80;99.90;;;;;;5075715;28;20541;-73
2022/06/17 04:21:13;;;;;;;3.93;3.53;;;15.80;99.90;;;;;;5071430;28;20457;-71
2022/06/17 04:23:42;;;;;;;4.67;4.17;;;15.70;99.90;;;;;;5075349;28;20461;-73
2022/06/17 04:26:17;;;;;;;6.23;4.53;;;15.90;99.90;;;;;;5078809;28;21005;-72
2022/06/17 04:28:49;;;;;;;6.23;4.10;;;16.00;99.90;;;;;;5076043;28;20468;-72
2022/06/17 04:31:20;;;;;;;4.90;4.50;;;16.10;99.90;;;;;;5072375;28;20476;-72
2022/06/17 04:33:51;;;;;;;5.63;4.80;;;16.20;99.90;;;;;;5075594;28;20459;-72
2022/06/17 04:36:22;;;;;;;6.43;4.00;;;16.10;99.90;;;;;;5072202;28;20798;-72
2022/06/17 04:38:54;;;;;;;6.77;3.43;;;16.20;99.90;;;;;;5072828;28;20453;-72
2022/06/17 04:41:24;;;;;;;5.80;3.67;;;16.50;99.90;;;;;;5066536;28;20482;-72
2022/06/17 04:43:55;;;;;;;5.47;4.00;;;16.70;99.90;;;;;;5073709;28;20429;-72
2022/06/17 04:46:29;;;;;;;6.50;4.90;;;16.70;99.90;;;;;;5071542;28;20449;-72
2022/06/17 04:48:58;;;;;;;5.13;3.70;;;16.80;99.90;;;;;;5072977;28;20454;-70
2022/06/17 04:51:25;;;;;;;4.53;4.10;;;16.80;99.90;;;;;;5065442;28;20509;-70
2022/06/17 04:53:53;;;;;;;4.70;4.30;;;16.80;99.90;;;;;;5069780;28;20461;-70
2022/06/17 04:56:28;;;;;;;4.47;4.07;;;16.80;99.90;;;;;;5074712;28;20458;-70
2022/06/17 04:58:55;;;;;;;5.97;3.60;;;16.90;99.90;;;;;;5079745;28;20470;-69
2022/06/17 05:01:23;;;;;;;7.83;5.00;;;17.00;99.90;;;;;;5079068;28;20478;-70
2022/06/17 05:03:53;;;;;;;9.93;4.93;;;17.10;99.90;;;;;;5083461;28;20466;-71
2022/06/17 05:06:20;;;;;;;4.50;3.70;;;17.20;99.90;;;;;;5081196;28;21231;-70
2022/06/17 05:08:57;;;;;;;8.80;4.70;;;17.40;99.90;;;;;;5067177;28;20502;-71
2022/06/17 05:11:28;;;;;;;9.20;4.23;;;17.50;99.90;;;;;;5071130;28;20860;-70
2022/06/17 05:14:01;;;;;;;5.57;4.57;;;17.80;99.90;;;;;;5067406;28;20455;-70
2022/06/17 05:16:28;;;;;;;4.83;4.43;;;18.00;99.90;;;;;;5079803;28;20992;-70
2022/06/17 05:18:57;;;;;;;11.23;4.20;;;18.10;99.90;;;;;;5077529;28;20470;-69
2022/06/17 05:21:25;;;;;;;6.80;5.10;;;18.30;99.90;;;;;;5066844;28;25634;-70
2022/06/17 05:23:58;;;;;;;13.93;5.33;;;18.60;99.90;;;;;;5074435;28;20454;-70
2022/06/17 05:26:26;;;;;;;6.80;5.47;;;19.00;99.90;;;;;;5070289;28;20594;-69
2022/06/17 05:28:53;;;;;;;7.17;3.97;;;19.10;99.90;;;;;;5077415;28;20469;-70
2022/06/17 05:31:22;;;;;;;8.80;5.30;;;19.50;99.90;;;;;;5078602;28;20778;-69
2022/06/17 05:33:50;;;;;;;15.20;5.37;;;19.90;99.90;;;;;;5077368;28;20467;-69
2022/06/17 05:36:18;;;;;;;12.67;4.80;;;20.30;99.90;;;;;;5077813;28;20963;-69
2022/06/17 05:38:45;;;;;;;7.00;3.80;;;20.70;99.90;;;;;;5072227;28;20557;-71
2022/06/17 05:41:15;;;;;;;7.50;3.67;;;21.20;99.90;;;;;;5080603;28;20521;-70
2022/06/17 05:43:43;;;;;;;13.53;5.37;;;21.50;99.90;;;;;;5084492;28;20465;-70
2022/06/17 05:46:10;;;;;;;6.03;3.43;;;22.10;99.90;;;;;;5081180;28;20928;-69
2022/06/17 05:48:37;;;;;;;8.50;3.90;;;22.00;99.90;;;;;;5076897;28;20492;-71
2022/06/17 05:51:04;;;;;;;5.50;3.50;;;22.20;99.90;;;;;;5074347;28;20491;-73
2022/06/17 05:53:33;;;;;;;9.80;3.80;;;23.30;99.90;;;;;;5065163;28;20454;-73
2022/06/17 05:55:59;;;;;;;8.00;4.83;;;23.80;99.90;;;;;;5070801;28;20552;-71
2022/06/17 05:58:26;;;;;;;6.23;3.80;;;23.90;99.90;;;;;;5073496;28;20457;-70
2022/06/17 06:00:53;;;;;;;13.00;4.30;;;23.90;99.90;;;;;;5073418;28;20832;-71
2022/06/17 06:03:23;;;;;;;5.20;3.50;;;23.30;99.90;;;;;;5073475;28;20458;-72
2022/06/17 06:05:50;;;;;;;6.40;4.13;;;23.10;99.90;;;;;;5077557;28;20553;-71
2022/06/17 06:08:17;;;;;;;3.47;3.17;;;22.70;99.90;;;;;;5055792;28;20462;-70
2022/06/17 06:10:47;;;;;;;4.63;3.67;;;22.50;99.90;;;;;;5072566;28;20469;-73
2022/06/17 06:13:16;;;;;;;5.63;4.23;;;22.20;99.90;;;;;;5068637;28;20466;-70
2022/06/17 06:15:47;;;;;;;3.57;3.27;;;22.30;99.90;;;;;;5073946;28;20850;-71
2022/06/17 06:18:16;;;;;;;7.43;3.90;;;22.90;99.90;;;;;;5072090;28;20462;-71
2022/06/17 06:20:43;;;;;;;3.80;2.70;;;23.50;99.90;;;;;;5068279;28;20478;-71
2022/06/17 06:23:10;;;;;;;4.50;3.03;;;23.90;99.90;;;;;;5079310;28;21218;-71
2022/06/17 06:25:37;;;;;;;56.87;7.83;;;24.40;99.90;;;;;;5077256;28;20552;-71
2022/06/17 06:28:11;;;;;;;3.50;2.67;;;25.20;99.90;;;;;;5081224;28;20454;-71
2022/06/17 06:30:38;;;;;;;3.63;2.30;;;25.40;99.90;;;;;;5076464;28;20469;-72
2022/06/17 06:33:06;;;;;;;3.10;2.23;;;25.20;99.90;;;;;;5075914;28;20458;-71
2022/06/17 06:35:34;;;;;;;6.50;2.87;;;25.80;99.90;;;;;;5078167;28;20460;-71
2022/06/17 06:38:02;;;;;;;11.93;4.40;;;26.20;99.90;;;;;;5079340;28;20856;-71
2022/06/17 06:40:30;;;;;;;3.80;2.30;;;26.90;99.90;;;;;;5076581;28;20691;-71
2022/06/17 06:42:57;;;;;;;2.40;2.03;;;27.30;99.90;;;;;;5082862;28;20489;-71
2022/06/17 06:45:28;;;;;;;2.70;2.50;;;27.80;99.90;;;;;;5076919;28;20489;-72
2022/06/17 06:47:58;;;;;;;2.87;2.30;;;27.90;99.50;;;;;;5068347;28;20533;-71
2022/06/17 06:50:27;;;;;;;4.13;2.57;;;27.60;99.00;;;;;;5056972;28;20854;-70
2022/06/17 06:52:54;;;;;;;6.13;2.90;;;27.60;99.30;;;;;;5075760;28;20458;-72
2022/06/17 06:55:21;;;;;;;2.63;2.30;;;26.80;98.50;;;;;;5079638;28;20478;-72
2022/06/17 06:57:51;;;;;;;3.90;2.33;;;26.90;98.90;;;;;;5074827;28;20505;-71
2022/06/17 07:00:20;;;;;;;4.63;2.10;;;27.10;97.10;;;;;;5077213;28;20841;-71
2022/06/17 07:02:48;;;;;;;7.47;2.53;;;26.40;98.30;;;;;;5074817;28;20564;-70
2022/06/17 07:05:16;;;;;;;6.10;2.23;;;26.30;99.90;;;;;;5075175;28;20578;-70
2022/06/17 07:07:43;;;;;;;3.30;2.30;;;26.60;98.90;;;;;;5074196;28;20463;-70
2022/06/17 07:10:13;;;;;;;3.17;2.50;;;27.00;98.90;;;;;;5069956;28;21178;-72
2022/06/17 07:12:40;;;;;;;2.27;2.07;;;26.90;98.20;;;;;;5078864;28;21217;-70
2022/06/17 07:15:09;;;;;;;2.63;1.87;;;27.40;95.60;;;;;;5069376;28;20557;-70
2022/06/17 07:17:36;;;;;;;3.50;2.13;;;27.90;95.60;;;;;;5074171;28;20832;-70
2022/06/17 07:20:05;;;;;;;2.63;2.20;;;28.10;95.70;;;;;;5071869;28;20816;-72
2022/06/17 07:22:32;;;;;;;10.70;4.87;;;28.60;94.10;;;;;;5079603;28;20553;-71
2022/06/17 07:24:59;;;;;;;2.40;2.10;;;29.30;92.90;;;;;;5069538;28;21807;-71
2022/06/17 07:27:26;;;;;;;2.70;1.80;;;29.10;90.20;;;;;;5074075;28;20802;-72
2022/06/17 07:29:56;;;;;;;5.00;2.33;;;29.10;89.20;;;;;;5074325;28;20554;-70
2022/06/17 07:32:23;;;;;;;2.60;1.80;;;28.50;90.10;;;;;;5075293;28;20484;-72
2022/06/17 07:34:50;;;;;;;3.13;1.90;;;28.80;86.10;;;;;;5064969;28;20458;-71
2022/06/17 07:40:04;;;;;;;3.27;2.03;;;29.20;87.40;;;;;;5073960;28;20758;-71
2022/06/17 07:42:38;;;;;;;2.40;2.10;;;29.80;85.20;;;;;;5084511;28;20477;-71
2022/06/17 07:45:08;;;;;;;4.50;2.10;;;29.90;84.20;;;;;;5079991;28;20486;-71
2022/06/17 07:47:34;;;;;;;3.00;1.60;;;29.20;80.10;;;;;;5080907;28;20574;-71
2022/06/17 07:50:02;;;;;;;3.27;2.13;;;29.30;79.50;;;;;;5076780;28;20936;-71
2022/06/17 07:52:30;;;;;;;3.67;2.17;;;29.30;77.60;;;;;;5066322;28;20509;-71
2022/06/17 07:54:57;;;;;;;2.03;1.70;;;29.30;78.20;;;;;;5071266;28;20826;-71
2022/06/17 07:57:23;;;;;;;1.97;1.77;;;29.50;76.80;;;;;;5076435;28;20484;-71
2022/06/17 07:59:50;;;;;;;4.17;2.13;;;29.80;76.80;;;;;;5078976;28;20771;-73
2022/06/17 08:02:17;;;;;;;3.40;1.70;;;29.10;76.40;;;;;;5073469;28;21018;-70
2022/06/17 08:04:44;;;;;;;1.83;1.57;;;29.20;77.40;;;;;;5065164;28;20482;-71
2022/06/17 08:07:12;;;;;;;2.27;2.07;;;29.00;78.70;;;;;;5068322;28;20453;-70
2022/06/17 08:09:41;;;;;;;4.87;2.70;;;29.80;76.90;;;;;;5080575;28;20446;-71
2022/06/17 08:12:11;;;;;;;3.40;2.03;;;30.40;76.50;;;;;;5079717;28;20481;-71
2022/06/17 08:14:43;;;;;;;4.10;2.10;;;31.40;75.00;;;;;;5070976;28;20492;-71
2022/06/17 08:17:11;;;;;;;2.50;2.07;;;31.90;69.00;;;;;;5063168;28;20463;-70
2022/06/17 08:19:38;;;;;;;3.90;2.67;;;30.70;71.00;;;;;;5070038;28;20461;-71
2022/06/17 08:22:05;;;;;;;2.70;2.37;;;30.40;73.00;;;;;;5071051;28;20577;-72
2022/06/17 08:24:32;;;;;;;1.90;1.60;;;30.40;72.50;;;;;;5075364;28;20591;-71
2022/06/17 08:27:00;;;;;;;2.53;2.33;;;30.90;69.00;;;;;;5072011;28;20496;-72
2022/06/17 08:29:28;;;;;;;2.83;2.17;;;30.90;69.00;;;;;;5056812;28;20454;-71
2022/06/17 08:32:44;;;;;;;3.40;2.80;;;31.30;68.60;;;;;;5064135;28;20481;-72
2022/06/17 08:34:43;;;;;;;4.10;2.23;;;31.20;68.50;;;;;;5077253;28;20461;-71
2022/06/17 08:37:10;;;;;;;9.30;2.40;;;31.50;68.50;;;;;;5085217;28;20546;-71
2022/06/17 08:39:37;;;;;;;3.60;2.20;;;32.20;68.50;;;;;;5086872;28;20469;-72
2022/06/17 08:42:16;;;;;;;4.23;2.27;;;32.40;65.70;;;;;;5091361;28;20542;-70
2022/06/17 08:44:51;;;;;;;4.00;2.20;;;32.00;62.00;;;;;;5083696;28;21005;-72
2022/06/17 08:47:37;;;;;;;2.70;2.23;;;31.20;64.10;;;;;;5082523;28;20541;-71
2022/06/17 08:50:34;;;;;;;3.27;2.17;;;31.40;66.00;;;;;;5079333;28;22045;-71
2022/06/17 08:53:30;;;;;;;5.60;2.40;;;31.00;65.80;;;;;;5075474;28;20484;-71
2022/06/17 08:56:05;;;;;;;2.93;2.73;;;31.90;66.20;;;;;;5069486;28;20567;-71
2022/06/17 08:58:44;;;;;;;3.70;2.20;;;32.20;64.40;;;;;;5065689;28;20599;-71
2022/06/17 09:01:21;;;;;;;5.07;3.03;;;32.30;64.60;;;;;;5073010;28;20477;-70
2022/06/17 09:04:12;;;;;;;5.30;2.50;;;32.50;61.20;;;;;;5069700;28;20452;-71
2022/06/17 09:06:58;;;;;;;2.37;2.17;;;32.60;60.90;;;;;;5069291;28;20481;-71
2022/06/17 09:09:55;;;;;;;2.40;2.20;;;33.30;61.90;;;;;;5068835;28;20457;-71
2022/06/17 09:12:31;;;;;;;4.17;2.00;;;33.10;58.70;;;;;;5055271;28;20559;-71
2022/06/17 09:15:08;;;;;;;3.93;2.40;;;33.30;59.70;;;;;;5069997;28;20543;-71
2022/06/17 09:17:40;;;;;;;3.57;2.50;;;33.80;57.90;;;;;;5069682;28;20495;-71
2022/06/17 09:20:10;;;;;;;6.53;2.67;;;32.90;59.90;;;;;;5067331;28;20956;-71
2022/06/17 09:22:43;;;;;;;3.97;3.00;;;33.20;59.80;;;;;;5066663;28;20929;-71
2022/06/17 09:25:13;;;;;;;6.50;2.03;;;33.60;58.60;;;;;;5072577;28;20794;-70
2022/06/17 09:27:43;;;;;;;4.20;2.20;;;32.80;58.70;;;;;;5072596;28;20459;-71
2022/06/17 09:30:16;;;;;;;4.27;2.50;;;32.00;60.10;;;;;;5079809;28;20943;-71
2022/06/17 09:32:46;;;;;;;30.80;6.90;;;31.30;59.70;;;;;;5056593;28;20568;-72
2022/06/17 09:35:17;;;;;;;4.00;2.23;;;31.50;61.20;;;;;;5057611;28;20473;-72
2022/06/17 09:37:49;;;;;;;5.20;2.30;;;31.90;60.00;;;;;;5078482;28;20494;-71
2022/06/17 09:40:19;;;;;;;4.30;2.13;;;32.60;60.30;;;;;;5072202;28;20459;-71
2022/06/17 09:42:53;;;;;;;8.90;2.50;;;33.20;58.20;;;;;;5079377;28;20999;-71
2022/06/17 09:45:26;;;;;;;3.23;2.17;;;33.50;57.30;;;;;;5074679;28;20471;-71
2022/06/17 09:47:59;;;;;;;2.30;1.93;;;33.70;54.30;;;;;;5077108;28;20963;-71
2022/06/17 09:50:31;;;;;;;4.37;2.47;;;33.00;56.00;;;;;;5073426;28;21121;-71
2022/06/17 09:53:02;;;;;;;9.13;2.67;;;33.50;56.30;;;;;;5065853;28;20474;-71
2022/06/17 09:55:37;;;;;;;3.10;1.97;;;33.80;56.60;;;;;;5079226;28;20451;-71
2022/06/17 09:58:08;;;;;;;3.77;2.50;;;33.70;56.50;;;;;;5078439;28;20456;-71
2022/06/17 10:00:41;;;;;;;4.23;2.50;;;34.20;57.10;;;;;;5071470;28;20484;-72
2022/06/17 10:03:21;;;;;;;2.67;2.20;;;34.60;56.60;;;;;;5076049;28;20467;-71
2022/06/17 10:05:59;;;;;;;2.50;2.30;;;35.30;56.60;;;;;;5070263;28;20496;-71
2022/06/17 10:08:38;;;;;;;2.60;1.80;;;35.70;54.90;;;;;;5077286;28;20895;-70
2022/06/17 10:11:14;;;;;;;3.53;2.20;;;35.60;53.70;;;;;;5071973;28;20580;-71
2022/06/17 10:13:53;;;;;;;5.47;2.20;;;35.90;53.20;;;;;;5079500;28;20924;-70
2022/06/17 10:19:34;;;;;;;3.50;2.13;;;35.50;53.10;;;;;;5080477;28;20450;-70
2022/06/17 10:22:18;;;;;;;2.07;1.80;;;35.00;52.80;;;;;;5082182;28;20485;-70
2022/06/17 10:24:57;;;;;;;3.00;1.90;;;34.20;54.20;;;;;;5080419;28;20467;-70
2022/06/17 10:27:38;;;;;;;2.10;1.87;;;35.10;53.80;;;;;;5073255;28;20478;-72
2022/06/17 10:30:11;;;;;;;2.60;2.13;;;35.70;51.00;;;;;;5063618;28;21443;-71
2022/06/17 10:32:42;;;;;;;2.30;1.60;;;35.80;52.50;;;;;;5077876;28;20473;-71
2022/06/17 10:35:16;;;;;;;2.90;1.80;;;35.80;50.80;;;;;;5075960;28;20646;-71
2022/06/17 10:37:43;;;;;;;1.90;1.60;;;35.50;49.60;;;;;;5070758;28;20471;-70
2022/06/17 10:40:12;;;;;;;3.77;2.17;;;34.90;51.20;;;;;;5076495;28;20464;-70
2022/06/17 10:42:38;;;;;;;3.20;2.23;;;35.50;49.00;;;;;;5075458;28;20483;-70
2022/06/17 10:45:13;;;;;;;1.70;1.60;;;35.70;50.80;;;;;;5072356;28;21110;-70
2022/06/17 10:47:50;;;;;;;2.23;1.90;;;36.90;50.90;;;;;;5073039;28;20612;-71
2022/06/17 10:50:20;;;;;;;2.23;1.60;;;37.60;47.80;;;;;;5077653;28;20457;-71
2022/06/17 10:52:51;;;;;;;3.10;2.07;;;37.20;47.90;;;;;;5067857;28;20501;-71
2022/06/17 10:55:22;;;;;;;3.50;1.90;;;37.00;48.30;;;;;;5069460;28;20469;-71
2022/06/17 10:58:09;;;;;;;3.53;2.30;;;36.80;48.40;;;;;;5073856;28;20968;-72
2022/06/17 11:00:44;;;;;;;3.20;1.80;;;37.70;49.20;;;;;;5064470;28;20492;-71
2022/06/17 11:03:23;;;;;;;5.87;1.77;;;37.40;46.30;;;;;;5064781;28;20468;-72
2022/06/17 11:06:03;;;;;;;3.20;1.77;;;37.30;47.40;;;;;;5074008;28;20555;-72
2022/06/17 11:08:35;;;;;;;2.17;1.97;;;36.90;48.00;;;;;;5072466;28;20565;-70
2022/06/17 11:13:46;;;;;;;3.03;1.70;;;35.40;47.10;;;;;;5077373;28;20589;-70
2022/06/17 11:16:18;;;;;;;2.50;1.80;;;35.20;47.30;;;;;;5079296;28;20457;-71
2022/06/17 11:18:52;;;;;;;2.10;1.60;;;35.60;48.20;;;;;;5078665;28;20470;-72
2022/06/17 11:21:22;;;;;;;3.80;1.83;;;35.40;48.20;;;;;;5070658;28;20517;-71
2022/06/17 11:23:53;;;;;;;1.80;1.50;;;35.30;48.10;;;;;;5083982;28;20817;-71
2022/06/17 11:26:25;;;;;;;2.10;1.60;;;34.70;47.40;;;;;;5069795;28;20480;-72
2022/06/17 11:28:55;;;;;;;2.87;1.67;;;35.00;48.30;;;;;;5075452;28;20571;-72
2022/06/17 11:31:41;;;;;;;2.17;1.20;;;35.20;46.50;;;;;;5076173;28;20569;-72
2022/06/17 11:34:17;;;;;;;1.87;1.60;;;35.00;45.80;;;;;;5079211;28;20460;-71
2022/06/17 11:36:57;;;;;;;2.30;1.60;;;35.00;46.10;;;;;;5067341;28;21023;-71
2022/06/17 11:39:34;;;;;;;2.53;1.73;;;34.50;47.10;;;;;;5072472;28;20567;-71
2022/06/17 11:42:13;;;;;;;2.03;1.63;;;34.40;48.50;;;;;;5073566;28;20485;-71
2022/06/17 11:44:48;;;;;;;1.70;1.60;;;34.10;47.90;;;;;;5076192;28;20462;-71
2022/06/17 11:47:21;;;;;;;3.60;1.50;;;34.40;47.90;;;;;;5074247;28;20882;-71
2022/06/17 11:49:50;;;;;;;1.73;1.60;;;34.40;47.60;;;;;;5071842;28;20462;-71
2022/06/17 11:52:28;;;;;;;2.27;2.03;;;34.50;47.80;;;;;;5083503;28;20536;-70
2022/06/17 11:54:56;;;;;;;2.00;1.80;;;34.10;48.70;;;;;;5082875;28;20448;-72
2022/06/17 11:57:27;;;;;;;1.73;1.63;;;34.10;47.50;;;;;;5062858;28;20450;-72
2022/06/17 11:59:56;;;;;;;2.33;1.60;;;34.10;48.30;;;;;;5101240;22;20485;-78
2022/06/17 12:02:23;;;;;;;6.47;1.93;;;34.30;48.00;;;;;;5078908;28;20558;-81
2022/06/17 12:04:55;;;;;;;2.73;2.10;;;34.00;48.20;;;;;;5076581;28;20745;-79
2022/06/17 12:07:40;;;;;;;2.17;1.97;;;34.50;49.00;;;;;;5080169;28;20525;-81
2022/06/17 12:10:38;;;;;;;1.97;1.80;;;34.50;48.30;;;;;;5069810;28;20463;-80
2022/06/17 12:13:15;;;;;;;2.10;1.90;;;33.60;48.50;;;;;;5077397;28;20471;-80
2022/06/17 12:15:45;;;;;;;3.07;2.00;;;34.00;50.10;;;;;;5079578;28;20587;-82
2022/06/17 12:18:18;;;;;;;3.60;2.10;;;34.00;50.20;;;;;;5048092;28;20459;-80
2022/06/17 12:20:55;;;;;;;4.47;2.80;;;34.10;48.30;;;;;;5034494;28;20470;-79
2022/06/17 12:23:27;;;;;;;1.97;1.80;;;34.40;49.10;;;;;;5038620;28;20593;-81
2022/06/17 12:25:58;;;;;;;4.80;1.70;;;34.70;48.60;;;;;;5054740;28;20516;-79
2022/06/17 12:28:35;;;;;;;9.30;1.40;;;35.10;47.80;;;;;;5057740;28;20515;-81
2022/06/17 12:31:07;;;;;;;2.37;1.90;;;35.20;45.80;;;;;;5056985;28;20537;-79
2022/06/17 12:33:41;;;;;;;1.47;1.30;;;35.60;46.50;;;;;;5062572;28;20527;-82
2022/06/17 12:36:18;;;;;;;2.37;1.70;;;35.80;46.30;;;;;;5047344;28;20462;-82
2022/06/17 12:38:54;;;;;;;2.80;2.57;;;36.30;45.80;;;;;;5050183;28;20456;-80
2022/06/17 12:41:26;;;;;;;1.70;1.60;;;36.10;44.10;;;;;;5048010;28;20477;-81
2022/06/17 12:44:17;;;;;;;1.97;1.50;;;36.30;46.60;;;;;;5055427;28;20573;-81
2022/06/17 12:46:50;;;;;;;1.80;1.40;;;35.60;45.40;;;;;;5053945;28;20949;-79
2022/06/17 12:55:11;;;;;;;2.07;1.70;;;35.00;44.50;;;;;;5072115;28;20490;-81
2022/06/17 12:57:43;;;;;;;2.40;2.20;;;35.30;42.60;;;;;;5075914;28;20508;-80
2022/06/17 13:00:17;;;;;;;1.90;1.50;;;35.80;44.20;;;;;;5063196;28;20488;-80
2022/06/17 13:03:14;;;;;;;3.10;1.40;;;35.80;44.50;;;;;;5068127;28;21285;-82
2022/06/17 13:05:43;;;;;;;5.60;1.43;;;36.00;44.70;;;;;;5075907;28;20452;-80
2022/06/17 13:08:22;;;;;;;1.83;1.47;;;36.70;42.50;;;;;;5067107;28;20485;-81
2022/06/17 13:10:56;;;;;;;2.00;1.70;;;37.00;41.70;;;;;;5076249;28;20445;-82
2022/06/17 13:13:41;;;;;;;2.67;1.97;;;37.40;42.20;;;;;;5076945;28;20465;-82
2022/06/17 13:16:16;;;;;;;4.63;1.70;;;37.80;40.80;;;;;;5069563;28;20959;-82
2022/06/17 13:18:49;;;;;;;2.23;1.93;;;38.00;41.60;;;;;;5068936;28;20460;-79
2022/06/17 13:21:24;;;;;;;1.90;1.27;;;37.80;41.40;;;;;;5062289;28;20489;-82